Time;durP1;ratioP1;P1;durP2;ratioP2;P2;SDS_P1;SDS_P2;PMS_P1;PMS_P2;Temp;Humidity;BMP_temperature;BMP_pressure;BME280_temperature;BME280_humidity;BME280_pressure;Samples;Min_cycle;Max_cycle;Signal;HPM_P1;HPM_P2
2022/11/10 09:47:42;;;;;;;13.13;6.90;;;18.40;79.90;;;;;;5071867;22;20189;-71
2022/11/10 09:50:17;;;;;;;17.13;6.97;;;18.50;80.20;;;;;;5073255;28;20040;-70
2022/11/10 09:52:43;;;;;;;15.38;6.60;;;18.50;79.20;;;;;;5071173;28;20391;-71
2022/11/10 09:55:44;;;;;;;17.73;6.43;;;18.50;79.20;;;;;;5072509;28;20040;-71
2022/11/10 09:58:12;;;;;;;10.65;6.40;;;18.50;79.50;;;;;;5039633;28;20051;-74
2022/11/10 10:00:40;;;;;;;15.70;7.10;;;18.50;78.80;;;;;;5072455;28;20036;-72
2022/11/10 10:03:06;;;;;;;10.38;6.30;;;18.50;78.90;;;;;;5071079;28;20071;-71
2022/11/10 10:05:45;;;;;;;15.55;6.53;;;18.60;79.10;;;;;;5072245;28;20083;-73
2022/11/10 10:08:21;;;;;;;17.48;8.38;;;18.60;78.80;;;;;;5072576;28;20036;-71
2022/11/10 10:11:16;;;;;;;17.85;7.15;;;18.60;78.80;;;;;;5071399;28;20025;-72
2022/11/10 10:14:07;;;;;;;13.05;7.68;;;18.80;78.80;;;;;;5070935;28;20471;-71
2022/11/10 10:16:33;;;;;;;14.32;6.97;;;19.00;78.60;;;;;;5071113;28;20044;-72
2022/11/10 10:19:05;;;;;;;14.15;6.10;;;19.10;77.70;;;;;;5072568;28;20039;-71
2022/11/10 10:21:54;;;;;;;14.35;6.40;;;19.20;77.30;;;;;;5072396;28;20036;-71
2022/11/10 10:24:22;;;;;;;17.92;6.80;;;19.30;77.10;;;;;;5060548;28;20044;-72
2022/11/10 10:26:57;;;;;;;15.32;6.78;;;19.40;76.60;;;;;;5072446;28;20025;-72
2022/11/10 10:29:30;;;;;;;16.75;6.72;;;19.40;76.60;;;;;;5070714;28;20033;-72
2022/11/10 10:31:57;;;;;;;15.30;7.00;;;19.50;76.90;;;;;;5072152;28;20032;-70
2022/11/10 10:34:27;;;;;;;16.42;7.68;;;19.60;76.20;;;;;;5070986;28;20122;-71
2022/11/10 10:36:53;;;;;;;12.32;6.57;;;19.60;76.00;;;;;;5071951;28;20048;-70
2022/11/10 10:39:29;;;;;;;13.02;6.78;;;19.70;76.00;;;;;;5072240;28;20087;-72
2022/11/10 10:41:55;;;;;;;16.27;6.60;;;19.80;75.70;;;;;;5070465;28;20036;-71
2022/11/10 10:44:21;;;;;;;17.42;6.07;;;19.90;75.60;;;;;;5070579;28;20592;-73
2022/11/10 10:46:58;;;;;;;18.73;6.13;;;20.00;75.20;;;;;;5087647;28;20060;-71
2022/11/10 10:49:28;;;;;;;11.10;5.40;;;20.00;75.50;;;;;;5072060;28;20106;-72
2022/11/10 10:52:11;;;;;;;15.40;5.60;;;20.00;74.50;;;;;;5070452;28;20086;-71
2022/11/10 10:54:38;;;;;;;12.48;5.60;;;20.10;74.50;;;;;;5071838;28;20115;-72
2022/11/10 10:57:19;;;;;;;14.27;5.80;;;20.30;74.40;;;;;;5071658;28;20151;-72
2022/11/10 10:59:45;;;;;;;10.13;5.60;;;20.40;74.00;;;;;;5072139;28;20150;-72
2022/11/10 11:02:30;;;;;;;12.15;6.18;;;20.40;73.80;;;;;;5070506;28;20028;-71
2022/11/10 11:05:11;;;;;;;13.50;5.97;;;20.50;73.90;;;;;;5070274;28;20484;-72
2022/11/10 11:07:37;;;;;;;13.48;5.70;;;20.40;73.20;;;;;;5071748;28;20051;-71
2022/11/10 11:10:17;;;;;;;20.77;11.93;;;20.40;73.10;;;;;;5071914;28;20558;-72
2022/11/10 11:12:43;;;;;;;14.27;6.22;;;20.40;73.20;;;;;;5071564;28;20033;-72
2022/11/10 11:15:29;;;;;;;10.27;5.35;;;20.40;73.00;;;;;;5070230;28;20127;-71
2022/11/10 11:17:55;;;;;;;15.20;5.80;;;20.40;72.80;;;;;;5070321;28;20032;-71
2022/11/10 11:20:44;;;;;;;15.02;6.00;;;20.40;72.70;;;;;;5070402;28;20029;-71
2022/11/10 11:23:40;;;;;;;12.70;5.53;;;20.50;73.20;;;;;;5075269;28;20044;-73
2022/11/10 11:26:44;;;;;;;12.32;5.32;;;20.50;72.50;;;;;;5069756;28;20081;-72
2022/11/10 11:29:16;;;;;;;19.35;5.75;;;20.50;73.10;;;;;;5051843;28;20116;-71
2022/11/10 11:32:04;;;;;;;18.23;5.97;;;20.50;72.50;;;;;;5075069;28;20097;-72
2022/11/10 11:35:02;;;;;;;13.95;5.57;;;20.60;72.90;;;;;;5075109;28;20033;-72
2022/11/10 11:37:55;;;;;;;12.55;5.72;;;20.70;72.60;;;;;;5050287;28;20051;-71
2022/11/10 11:40:36;;;;;;;12.07;5.45;;;20.80;72.40;;;;;;5073795;28;20029;-70
2022/11/10 11:43:26;;;;;;;12.90;5.32;;;20.80;72.10;;;;;;5073296;28;20044;-71
2022/11/10 11:46:15;;;;;;;11.88;4.93;;;21.00;71.70;;;;;;5074892;28;20029;-69
2022/11/10 11:48:56;;;;;;;19.05;5.50;;;21.10;71.80;;;;;;5073335;28;20048;-73
2022/11/10 11:51:43;;;;;;;16.92;5.88;;;21.20;71.30;;;;;;5074667;28;20676;-71
2022/11/10 11:54:15;;;;;;;10.75;5.53;;;21.30;70.90;;;;;;5075009;28;20037;-72
2022/11/10 11:56:44;;;;;;;9.75;4.43;;;21.40;70.60;;;;;;5074822;28;20047;-73
2022/11/10 11:59:16;;;;;;;12.98;5.45;;;21.40;70.30;;;;;;5073360;28;20521;-71
2022/11/10 12:02:13;;;;;;;11.05;4.82;;;21.50;70.30;;;;;;5073243;28;20048;-72
2022/11/10 12:04:53;;;;;;;15.85;5.30;;;21.60;70.30;;;;;;5063041;28;20518;-72
2022/11/10 12:07:41;;;;;;;9.98;4.93;;;21.80;70.00;;;;;;5068927;28;20375;-71
2022/11/10 12:10:23;;;;;;;26.10;5.88;;;21.90;69.80;;;;;;5052172;28;20473;-74
2022/11/10 12:13:21;;;;;;;27.00;5.90;;;22.10;69.40;;;;;;5072187;28;20048;-74
2022/11/10 12:15:58;;;;;;;13.93;5.10;;;22.20;68.90;;;;;;5049142;28;20052;-70
2022/11/10 12:18:33;;;;;;;13.57;4.90;;;22.30;69.40;;;;;;5070637;28;20495;-74
2022/11/10 12:21:23;;;;;;;13.05;5.13;;;22.30;68.40;;;;;;5057257;28;20151;-69
2022/11/10 12:24:07;;;;;;;9.68;5.20;;;22.30;68.90;;;;;;5040696;28;20043;-72
2022/11/10 12:26:39;;;;;;;11.90;4.65;;;22.30;68.20;;;;;;5070474;28;20546;-71
2022/11/10 12:29:38;;;;;;;10.65;4.80;;;22.30;68.40;;;;;;5071796;28;20063;-71
2022/11/10 12:32:36;;;;;;;10.20;4.38;;;22.40;67.80;;;;;;5071752;28;20028;-72
2022/11/10 12:35:31;;;;;;;14.00;4.07;;;22.30;67.80;;;;;;5054649;28;20056;-72
2022/11/10 12:38:06;;;;;;;13.05;4.88;;;22.30;68.00;;;;;;5071463;28;20499;-70
2022/11/10 12:40:45;;;;;;;12.98;4.38;;;22.30;68.30;;;;;;5069930;28;20451;-71
2022/11/10 12:43:56;;;;;;;13.73;4.68;;;22.30;68.30;;;;;;5071054;28;20431;-69
2022/11/10 12:46:22;;;;;;;10.98;4.07;;;22.20;68.30;;;;;;5071217;28;20055;-70
2022/11/10 12:49:04;;;;;;;13.60;3.85;;;22.30;68.40;;;;;;5070945;28;20037;-71
2022/11/10 12:52:15;;;;;;;15.38;4.40;;;22.30;68.10;;;;;;5070002;28;20112;-72
2022/11/10 12:54:44;;;;;;;10.60;4.50;;;22.30;68.00;;;;;;5071570;28;20040;-71
2022/11/10 12:57:20;;;;;;;11.10;4.20;;;22.30;68.70;;;;;;5071024;28;20143;-71
2022/11/10 13:00:05;;;;;;;9.55;4.30;;;22.30;68.20;;;;;;5080811;28;20525;-71
2022/11/10 13:02:41;;;;;;;13.82;4.35;;;22.40;68.10;;;;;;5062113;28;20541;-71
2022/11/10 13:05:20;;;;;;;7.40;3.80;;;22.50;68.00;;;;;;5073102;28;20111;-73
2022/11/10 13:08:03;;;;;;;13.38;4.00;;;22.60;69.10;;;;;;5058374;28;20044;-71
2022/11/10 13:10:29;;;;;;;17.90;4.73;;;22.70;69.40;;;;;;5051628;28;20029;-71
2022/11/10 13:13:04;;;;;;;14.85;4.47;;;22.60;67.90;;;;;;5059071;28;20041;-70
2022/11/10 13:15:39;;;;;;;13.50;3.80;;;22.50;67.60;;;;;;5073100;28;20044;-72
2022/11/10 13:18:20;;;;;;;11.27;3.63;;;22.50;68.10;;;;;;5072833;28;20425;-70
2022/11/10 13:20:50;;;;;;;11.80;4.50;;;22.40;68.50;;;;;;5072722;28;20040;-70
2022/11/10 13:23:27;;;;;;;9.80;4.10;;;22.40;68.10;;;;;;5071700;28;20385;-71
2022/11/10 13:25:54;;;;;;;14.43;4.60;;;22.40;68.10;;;;;;5071139;28;20037;-70
2022/11/10 13:28:45;;;;;;;11.45;4.55;;;22.50;68.40;;;;;;5072731;28;20040;-71
2022/11/10 13:31:25;;;;;;;19.38;4.70;;;22.60;68.00;;;;;;5072580;28;20433;-71
2022/11/10 13:34:11;;;;;;;17.83;4.35;;;22.60;68.60;;;;;;5069372;28;20511;-70
2022/11/10 13:36:45;;;;;;;10.27;4.22;;;22.70;69.10;;;;;;5057654;28;20465;-70
2022/11/10 13:39:23;;;;;;;9.13;3.60;;;22.70;68.40;;;;;;5063618;28;20040;-69
2022/11/10 13:42:08;;;;;;;10.23;3.45;;;22.70;67.80;;;;;;5054657;28;20037;-69
2022/11/10 13:44:40;;;;;;;7.65;3.80;;;22.70;67.40;;;;;;5062249;28;20033;-69
2022/11/10 13:47:06;;;;;;;15.48;4.50;;;22.70;68.60;;;;;;5059209;28;20123;-70
2022/11/10 13:49:50;;;;;;;9.32;3.30;;;22.70;68.50;;;;;;5060990;28;20120;-71
2022/11/10 13:52:26;;;;;;;10.35;4.45;;;22.70;68.50;;;;;;5058293;28;20040;-68
2022/11/10 13:55:10;;;;;;;10.57;3.47;;;22.70;67.50;;;;;;5071942;28;20066;-70
2022/11/10 13:57:39;;;;;;;12.02;3.70;;;22.70;67.30;;;;;;5071772;28;20044;-70
2022/11/10 14:00:14;;;;;;;12.27;3.40;;;22.70;69.20;;;;;;5070060;28;20141;-71
2022/11/10 14:02:50;;;;;;;9.95;3.08;;;22.70;68.10;;;;;;5071705;28;20037;-70
2022/11/10 14:05:28;;;;;;;7.22;3.08;;;22.70;67.30;;;;;;5072107;28;20043;-69
2022/11/10 14:08:22;;;;;;;11.27;3.20;;;22.70;68.40;;;;;;5070846;28;20085;-70
2022/11/10 14:10:59;;;;;;;10.73;3.72;;;22.60;67.90;;;;;;5050733;28;20041;-71
2022/11/10 14:13:46;;;;;;;10.25;3.28;;;22.70;68.60;;;;;;5052245;28;20033;-69
2022/11/10 14:16:22;;;;;;;11.25;3.42;;;22.70;67.40;;;;;;5051678;28;20485;-68
2022/11/10 14:19:15;;;;;;;10.05;3.60;;;22.60;68.10;;;;;;5054727;28;20048;-69
2022/11/10 14:21:53;;;;;;;10.02;3.58;;;22.50;67.60;;;;;;5072045;28;20036;-70
2022/11/10 14:24:32;;;;;;;7.55;3.15;;;22.40;68.40;;;;;;5071961;28;20029;-70
2022/11/10 14:27:04;;;;;;;7.95;3.10;;;22.30;67.90;;;;;;5070646;28;20028;-70
2022/11/10 14:29:37;;;;;;;12.07;3.53;;;22.30;68.80;;;;;;5071208;28;20040;-70
2022/11/10 14:32:11;;;;;;;10.30;4.35;;;22.30;69.00;;;;;;5070317;28;20032;-72
2022/11/10 14:34:48;;;;;;;14.02;5.22;;;22.20;68.60;;;;;;5071883;28;20112;-70
2022/11/10 14:37:27;;;;;;;13.10;3.70;;;22.20;69.50;;;;;;5071925;28;20036;-70
2022/11/10 14:39:56;;;;;;;8.57;3.60;;;22.10;69.40;;;;;;5071742;28;20028;-71
2022/11/10 14:42:31;;;;;;;9.75;3.60;;;22.10;69.40;;;;;;5072029;28;20036;-79
2022/11/10 14:45:17;;;;;;;16.27;4.40;;;22.00;69.40;;;;;;5071308;28;20024;-77
2022/11/10 14:47:52;;;;;;;8.85;4.05;;;21.90;69.70;;;;;;5070131;28;20044;-77
2022/11/10 14:50:31;;;;;;;10.65;3.33;;;21.90;69.60;;;;;;5070337;28;20369;-76
2022/11/10 14:53:07;;;;;;;10.70;4.05;;;21.90;70.80;;;;;;5070231;28;20036;-77
2022/11/10 14:55:35;;;;;;;10.25;4.40;;;21.80;70.20;;;;;;5071891;28;20076;-78
2022/11/10 14:58:12;;;;;;;8.35;4.10;;;21.80;70.30;;;;;;5075597;28;20024;-78
2022/11/10 15:00:40;;;;;;;12.48;4.47;;;21.80;70.60;;;;;;5075168;28;20048;-76
2022/11/10 15:03:08;;;;;;;12.73;4.20;;;21.70;70.60;;;;;;5090599;28;20035;-76
2022/11/10 15:05:34;;;;;;;13.98;3.60;;;21.70;71.30;;;;;;5074024;28;20052;-76
2022/11/10 15:08:01;;;;;;;8.15;4.00;;;21.70;71.40;;;;;;5075797;28;20044;-77
2022/11/10 15:10:49;;;;;;;10.93;3.85;;;21.60;71.10;;;;;;5075195;28;20405;-76
2022/11/10 15:13:27;;;;;;;15.85;4.07;;;21.50;71.40;;;;;;5073826;28;20032;-76
2022/11/10 15:16:21;;;;;;;13.23;4.00;;;21.50;71.50;;;;;;5075192;28;20051;-76
2022/11/10 15:18:49;;;;;;;13.57;4.47;;;21.40;71.70;;;;;;5072707;28;20040;-77
2022/11/10 15:21:20;;;;;;;24.48;5.43;;;21.40;72.10;;;;;;5075000;28;20052;-77
2022/11/10 15:23:52;;;;;;;13.50;4.07;;;21.30;72.50;;;;;;5074983;28;20503;-76
2022/11/10 15:26:22;;;;;;;13.70;3.75;;;21.20;72.70;;;;;;5074827;28;20074;-77
2022/11/10 15:28:49;;;;;;;19.52;4.40;;;21.20;72.60;;;;;;5075041;28;20037;-76
2022/11/10 15:31:22;;;;;;;10.80;5.30;;;21.10;73.40;;;;;;5073619;28;20115;-77
2022/11/10 15:33:51;;;;;;;12.07;4.25;;;21.10;73.60;;;;;;5074641;28;20140;-77
2022/11/10 15:36:23;;;;;;;15.85;4.35;;;21.00;74.10;;;;;;5074351;28;20041;-76
2022/11/10 15:39:08;;;;;;;10.13;4.35;;;20.90;74.00;;;;;;5073236;28;20024;-77
2022/11/10 15:41:35;;;;;;;12.95;3.85;;;20.90;74.00;;;;;;5074529;28;20044;-77
2022/11/10 15:44:33;;;;;;;11.38;6.13;;;20.90;74.50;;;;;;5073119;28;20370;-78
2022/11/10 15:46:59;;;;;;;15.98;10.93;;;20.80;73.90;;;;;;5051683;28;20102;-78
2022/11/10 15:49:36;;;;;;;13.95;3.97;;;20.70;74.40;;;;;;5074641;28;20032;-77
2022/11/10 15:52:18;;;;;;;9.65;3.55;;;20.70;75.20;;;;;;5090383;28;20040;-77
2022/11/10 15:54:44;;;;;;;12.07;8.68;;;20.70;75.40;;;;;;5074635;28;20074;-76
2022/11/10 15:57:15;;;;;;;13.50;4.70;;;20.60;74.90;;;;;;5074775;28;20048;-76
2022/11/10 15:59:41;;;;;;;16.50;4.55;;;20.60;75.20;;;;;;5074580;28;20039;-75
2022/11/10 16:02:18;;;;;;;11.90;4.45;;;20.50;75.40;;;;;;5074393;28;20074;-77
2022/11/10 16:04:44;;;;;;;12.00;4.22;;;20.50;75.60;;;;;;5074494;28;20546;-76
2022/11/10 16:07:10;;;;;;;13.40;4.68;;;20.40;75.50;;;;;;5073428;28;20033;-76
2022/11/10 16:09:36;;;;;;;11.07;4.25;;;20.40;75.70;;;;;;5073882;28;20555;-77
2022/11/10 16:12:01;;;;;;;11.90;6.57;;;20.40;76.10;;;;;;5074428;28;20093;-77
2022/11/10 16:14:28;;;;;;;14.70;5.30;;;20.40;76.10;;;;;;5074056;28;20036;-77
2022/11/10 16:16:54;;;;;;;18.75;4.80;;;20.30;76.10;;;;;;5074421;28;20040;-78
2022/11/10 16:19:19;;;;;;;12.50;4.95;;;20.30;76.50;;;;;;5072902;28;20059;-76
2022/11/10 16:21:45;;;;;;;13.95;5.38;;;20.20;76.50;;;;;;5074055;28;20123;-77
2022/11/10 16:24:11;;;;;;;24.00;7.25;;;20.20;76.90;;;;;;5072695;28;20040;-77
2022/11/10 16:26:37;;;;;;;21.17;10.43;;;20.10;76.90;;;;;;5073855;28;20036;-76
2022/11/10 16:29:09;;;;;;;14.25;5.45;;;20.10;77.60;;;;;;5073759;28;20492;-77
2022/11/10 16:31:37;;;;;;;20.48;6.75;;;20.00;77.30;;;;;;5073836;28;20097;-77
2022/11/10 16:34:03;;;;;;;17.77;8.60;;;20.00;78.30;;;;;;5072744;28;20041;-78
2022/11/10 16:36:33;;;;;;;18.55;7.05;;;20.00;78.00;;;;;;5073613;28;20500;-78
2022/11/10 16:39:08;;;;;;;22.77;9.57;;;19.90;78.10;;;;;;5073922;28;20032;-77
2022/11/10 16:41:34;;;;;;;23.00;15.07;;;19.90;78.40;;;;;;5073602;28;20063;-78
2022/11/10 16:43:59;;;;;;;28.70;15.93;;;19.80;78.60;;;;;;5072415;28;20411;-78
2022/11/10 16:46:28;;;;;;;20.30;10.63;;;19.80;78.90;;;;;;5073523;28;20384;-77
2022/11/10 16:48:57;;;;;;;20.92;8.20;;;19.80;79.50;;;;;;5073371;28;20508;-78
2022/11/10 16:51:40;;;;;;;16.63;8.52;;;19.70;78.90;;;;;;5073475;28;20037;-77
2022/11/10 16:54:09;;;;;;;20.73;6.85;;;19.70;78.80;;;;;;5073512;28;20033;-78
2022/11/10 16:56:34;;;;;;;16.10;6.72;;;19.60;79.20;;;;;;5073318;28;20045;-77
2022/11/10 16:59:00;;;;;;;15.05;6.80;;;19.60;79.00;;;;;;5071929;28;20515;-78
2022/11/10 17:01:28;;;;;;;16.73;7.05;;;19.60;79.30;;;;;;5071932;28;20514;-77
2022/11/10 17:04:00;;;;;;;14.10;6.40;;;19.60;79.50;;;;;;5072963;28;20077;-78
2022/11/10 17:06:27;;;;;;;14.75;7.10;;;19.60;79.50;;;;;;5072854;28;20587;-78
2022/11/10 17:08:56;;;;;;;15.40;6.85;;;19.50;79.70;;;;;;5071563;28;20028;-78
2022/11/10 17:11:22;;;;;;;17.08;6.45;;;19.50;80.00;;;;;;5071758;28;20040;-77
2022/11/10 17:13:47;;;;;;;15.02;7.07;;;19.40;79.90;;;;;;5073002;28;20043;-78
2022/11/10 17:16:22;;;;;;;16.83;6.85;;;19.40;80.10;;;;;;5071221;28;20504;-77
2022/11/10 17:18:49;;;;;;;16.90;7.20;;;19.40;80.70;;;;;;5071326;28;20037;-78
2022/11/10 17:21:15;;;;;;;14.50;7.28;;;19.30;80.20;;;;;;5071386;28;20467;-79
2022/11/10 17:23:41;;;;;;;14.15;7.25;;;19.30;80.30;;;;;;5071359;28;20067;-77
2022/11/10 17:26:13;;;;;;;14.80;7.80;;;19.30;80.50;;;;;;5072570;28;20056;-78
2022/11/10 17:28:38;;;;;;;15.18;6.80;;;19.30;80.50;;;;;;5071147;28;20040;-77
2022/11/10 17:31:04;;;;;;;18.05;7.40;;;19.20;80.50;;;;;;5072722;28;20523;-76
2022/11/10 17:33:31;;;;;;;22.30;8.55;;;19.20;80.80;;;;;;5071222;28;20068;-77
2022/11/10 17:35:59;;;;;;;15.90;9.57;;;19.20;81.20;;;;;;5070944;28;20044;-78
2022/11/10 17:38:28;;;;;;;21.23;8.77;;;19.20;80.80;;;;;;5087938;28;20029;-78
2022/11/10 17:40:54;;;;;;;15.52;7.50;;;19.20;81.00;;;;;;5070945;28;20063;-77
2022/11/10 17:43:21;;;;;;;13.68;7.43;;;19.10;80.80;;;;;;5070733;28;20032;-78
2022/11/10 17:45:47;;;;;;;20.33;7.70;;;19.10;81.00;;;;;;5071173;28;20127;-78
2022/11/10 17:48:13;;;;;;;18.25;8.40;;;19.10;81.00;;;;;;5071979;28;20170;-77
2022/11/10 17:50:41;;;;;;;15.10;9.20;;;19.10;81.20;;;;;;5072688;28;20047;-78
2022/11/10 17:53:22;;;;;;;21.83;10.27;;;19.10;81.40;;;;;;5072150;28;20031;-77
2022/11/10 17:55:50;;;;;;;21.88;11.77;;;19.00;81.30;;;;;;5070765;28;20040;-78
2022/11/10 17:58:16;;;;;;;15.90;8.93;;;19.00;81.80;;;;;;5072172;28;20036;-78
2022/11/10 18:00:43;;;;;;;23.42;10.68;;;18.90;81.80;;;;;;5072247;28;20036;-77
2022/11/10 18:03:17;;;;;;;22.17;11.15;;;18.90;81.80;;;;;;5071865;28;20061;-78
2022/11/10 18:05:42;;;;;;;;;;;18.90;81.90;;;;;;5072240;28;20036;-77
2022/11/10 18:08:09;;;;;;;21.85;10.20;;;18.80;81.90;;;;;;5071911;28;19904;-76
2022/11/10 18:10:35;;;;;;;29.23;10.77;;;18.80;82.00;;;;;;5070401;28;20032;-76
2022/11/10 18:13:01;;;;;;;25.08;9.77;;;18.70;82.40;;;;;;5071975;28;20503;-77
2022/11/10 18:15:27;;;;;;;23.85;14.65;;;18.70;82.50;;;;;;5071925;28;20330;-77
2022/11/10 18:17:55;;;;;;;24.88;11.45;;;18.70;82.70;;;;;;5071658;28;20118;-76
2022/11/10 18:20:21;;;;;;;17.38;9.73;;;18.70;82.90;;;;;;5070650;28;20046;-77
2022/11/10 18:22:46;;;;;;;23.88;10.07;;;18.60;83.00;;;;;;5070365;28;20119;-77
2022/11/10 18:25:12;;;;;;;20.85;10.18;;;18.60;83.20;;;;;;5071867;28;20373;-77
2022/11/10 18:27:38;;;;;;;19.77;10.10;;;18.60;83.30;;;;;;5072054;28;20035;-78
2022/11/10 18:30:04;;;;;;;16.60;9.25;;;18.60;83.30;;;;;;5071480;28;20123;-77
2022/11/10 18:32:30;;;;;;;17.83;8.73;;;18.60;83.40;;;;;;5071487;28;20131;-78
2022/11/10 18:34:56;;;;;;;21.75;8.82;;;18.50;83.40;;;;;;5071805;28;20392;-75
2022/11/10 18:37:22;;;;;;;15.63;8.57;;;18.50;83.30;;;;;;5071616;28;20048;-76
2022/11/10 18:39:47;;;;;;;16.33;7.68;;;18.50;83.30;;;;;;5070285;28;20087;-76
2022/11/10 18:42:13;;;;;;;17.85;8.55;;;18.50;83.40;;;;;;5070336;28;20045;-77
2022/11/10 18:44:39;;;;;;;16.02;7.60;;;18.50;83.60;;;;;;5070724;28;20445;-77
